LIRS/GRS METAR and TAF weather

Enter ICAO airport designator
Station Type Date Time Source
LIRS METAR 2022/01/27 22:55 UTC NOAA

LIRS 272255Z 03003KT 9999 SCT030 03/01 Q1027


Station Type Date Time Source
LIRS Decoded METAR 2022/01/27 22:55 UTC NOAA

Grosseto, Italy (LIRS) 42-45N 011-04E 7M
Jan 27, 2022 - 05:55 PM EST / 2022.01.27 2255 UTC
Wind: from the NNE (030 degrees) at 3 MPH (3 KT):0
Visibility: greater than 7 mile(s):0
Sky conditions: partly cloudy
Temperature: 37 F (3 C)
Dew Point: 33 F (1 C)
Relative Humidity: 86%
Pressure (altimeter): 30.33 in. Hg (1027 hPa)
ob: LIRS 272255Z 03003KT 9999 SCT030 03/01 Q1027
cycle: 23

Station Type Date Time Source
LIRS TAF 2018/06/29 09:24 UTC NOAA

TAF TAF LIRS 290800Z 2909/2921 VRB03KT 9999 FEW030
BECMG 2911/2913 24015KT

Example: see airport list